createdAt,value
2019-02-11T00:01:53.445Z,34.90
2019-02-11T00:04:25.479Z,41.08
2019-02-11T00:06:57.275Z,27.50
2019-02-11T00:09:29.174Z,25.90
2019-02-11T00:12:01.010Z,25.40
2019-02-11T00:14:34.953Z,34.27
2019-02-11T00:17:12.206Z,32.37
2019-02-11T00:19:49.280Z,39.07
2019-02-11T00:22:21.148Z,31.80
2019-02-11T00:24:52.969Z,29.90
2019-02-11T00:27:24.772Z,27.03
2019-02-11T00:29:56.600Z,29.20
2019-02-11T00:32:28.392Z,24.87
2019-02-11T00:35:00.260Z,25.93
2019-02-11T00:37:32.097Z,27.60
2019-02-11T00:40:04.404Z,26.80
2019-02-11T00:42:36.231Z,33.07
2019-02-11T00:45:08.616Z,28.77
2019-02-11T00:47:40.438Z,28.33
2019-02-11T00:50:12.372Z,25.87
2019-02-11T00:52:44.212Z,23.57
2019-02-11T00:55:16.101Z,25.90
2019-02-11T00:57:47.941Z,24.23
2019-02-11T01:00:22.542Z,23.60
2019-02-11T01:02:54.377Z,28.50
2019-02-11T01:05:26.357Z,34.07
2019-02-11T01:07:58.317Z,28.30
2019-02-11T01:10:30.230Z,29.33
2019-02-11T01:13:03.167Z,33.97
2019-02-11T01:15:35.084Z,25.03
2019-02-11T01:18:06.947Z,26.87
2019-02-11T01:20:38.782Z,27.20
2019-02-11T01:23:10.664Z,24.57
2019-02-11T01:25:43.781Z,27.27
2019-02-11T01:28:15.784Z,24.00
2019-02-11T01:30:47.576Z,23.77
2019-02-11T01:33:19.480Z,30.83
2019-02-11T01:35:51.317Z,27.27
2019-02-11T01:38:23.181Z,21.33
2019-02-11T01:40:55.011Z,27.40
2019-02-11T01:43:26.874Z,28.20
2019-02-11T01:45:58.715Z,29.90
2019-02-11T01:48:31.117Z,32.17
2019-02-11T01:51:02.966Z,23.87
2019-02-11T01:53:34.861Z,27.00
2019-02-11T01:56:07.099Z,19.43
2019-02-11T01:58:41.734Z,28.53
2019-02-11T02:01:13.591Z,23.83
2019-02-11T02:03:45.745Z,26.63
2019-02-11T02:06:17.596Z,20.70
2019-02-11T02:08:49.406Z,24.30
2019-02-11T02:11:22.863Z,23.60
2019-02-11T02:13:54.702Z,28.17
2019-02-11T02:16:26.893Z,29.93
2019-02-11T02:18:58.719Z,23.83
2019-02-11T02:21:31.570Z,26.40
2019-02-11T02:24:03.411Z,24.20
2019-02-11T02:26:35.641Z,29.43
2019-02-11T02:29:09.772Z,26.27
2019-02-11T02:31:41.547Z,20.03
2019-02-11T02:34:13.430Z,26.30
2019-02-11T02:36:45.262Z,18.17
2019-02-11T02:39:17.134Z,16.33
2019-02-11T02:41:48.921Z,20.37
2019-02-11T02:44:20.783Z,20.10
2019-02-11T02:46:52.889Z,27.07
2019-02-11T02:49:24.734Z,25.57
2019-02-11T02:51:56.564Z,28.43
2019-02-11T02:54:28.823Z,25.57
2019-02-11T02:57:04.491Z,22.63
2019-02-11T02:59:36.327Z,18.97
2019-02-11T03:02:08.172Z,21.73
2019-02-11T03:04:39.986Z,21.37
2019-02-11T03:07:11.871Z,24.43
2019-02-11T03:09:44.882Z,23.27
2019-02-11T03:12:16.661Z,22.23
2019-02-11T03:14:48.496Z,24.03
2019-02-11T03:17:20.391Z,22.03
2019-02-11T03:19:52.220Z,18.20
2019-02-11T03:22:24.024Z,17.27
2019-02-11T03:24:55.856Z,15.03
2019-02-11T03:27:27.627Z,19.10
2019-02-11T03:29:59.455Z,25.23
2019-02-11T03:32:31.251Z,16.43
2019-02-11T03:35:04.270Z,23.40
2019-02-11T03:37:36.122Z,19.63
2019-02-11T03:40:08.233Z,19.00
2019-02-11T03:42:40.090Z,17.83
2019-02-11T03:45:12.280Z,17.47
2019-02-11T03:47:45.259Z,20.23
2019-02-11T03:50:17.176Z,20.73
2019-02-11T03:52:49.065Z,20.07
2019-02-11T03:55:20.972Z,19.53
2019-02-11T03:57:53.113Z,19.90
2019-02-11T04:00:24.935Z,22.23
2019-02-11T04:02:56.879Z,19.50
2019-02-11T04:05:28.809Z,17.70
2019-02-11T04:08:00.650Z,21.60
2019-02-11T04:10:32.627Z,18.77
2019-02-11T04:13:04.449Z,23.73
2019-02-11T04:15:38.022Z,21.17
2019-02-11T04:18:09.879Z,20.43
2019-02-11T04:20:41.815Z,24.63
2019-02-11T04:23:13.599Z,18.97
2019-02-11T04:25:46.614Z,17.17
2019-02-11T04:28:18.477Z,23.43
2019-02-11T04:30:50.312Z,21.03
2019-02-11T04:33:22.176Z,23.60
2019-02-11T04:35:54.089Z,17.83
2019-02-11T04:38:25.899Z,22.03
2019-02-11T04:40:57.738Z,21.03
2019-02-11T04:43:32.927Z,21.60
2019-02-11T04:46:05.118Z,18.43
2019-02-11T04:48:37.324Z,20.07
2019-02-11T04:51:09.150Z,21.27
2019-02-11T04:53:40.998Z,18.77
2019-02-11T04:56:12.822Z,16.97
2019-02-11T04:58:44.610Z,25.57
2019-02-11T05:01:16.479Z,20.97
2019-02-11T05:03:48.697Z,22.50
2019-02-11T05:06:20.635Z,19.67
2019-02-11T05:08:52.432Z,22.17
2019-02-11T05:11:25.245Z,19.07
2019-02-11T05:13:57.044Z,20.67
2019-02-11T05:16:28.861Z,20.37
2019-02-11T05:19:00.677Z,16.47
2019-02-11T05:21:36.113Z,16.30
2019-02-11T05:24:08.284Z,20.63
2019-02-11T05:26:40.086Z,19.90
2019-02-11T05:29:11.915Z,20.97
2019-02-11T05:31:43.745Z,19.63
2019-02-11T05:34:15.613Z,23.03
2019-02-11T05:36:47.435Z,22.90
2019-02-11T05:39:19.394Z,17.07
2019-02-11T05:41:51.232Z,24.30
2019-02-11T05:44:23.109Z,24.73
2019-02-11T05:46:55.825Z,26.60
2019-02-11T05:49:27.767Z,21.70
2019-02-11T05:51:59.583Z,15.83
2019-02-11T05:54:31.581Z,23.37
2019-02-11T05:57:04.242Z,19.23
2019-02-11T05:59:36.082Z,21.40
2019-02-11T06:02:08.038Z,31.80
2019-02-11T06:04:41.082Z,19.47
2019-02-11T06:07:13.305Z,20.03
2019-02-11T06:09:45.111Z,18.03
2019-02-11T06:12:16.942Z,17.40
2019-02-11T06:14:48.775Z,17.17
2019-02-11T06:17:20.548Z,20.50
2019-02-11T06:19:52.357Z,16.43
2019-02-11T06:22:24.270Z,21.00
2019-02-11T06:24:56.106Z,24.00
2019-02-11T06:27:29.673Z,17.17
2019-02-11T06:30:02.655Z,15.30
2019-02-11T06:32:34.464Z,22.20
2019-02-11T06:35:07.343Z,17.27
2019-02-11T06:37:39.559Z,23.40
2019-02-11T06:40:11.409Z,18.30
2019-02-11T06:42:43.220Z,14.57
2019-02-11T06:45:17.460Z,16.93
2019-02-11T06:47:50.030Z,19.27
2019-02-11T06:50:21.848Z,14.83
2019-02-11T06:52:53.699Z,18.37
2019-02-11T06:55:25.554Z,16.03
2019-02-11T06:57:57.437Z,21.93
2019-02-11T07:00:29.232Z,20.23
2019-02-11T07:03:02.965Z,20.03
2019-02-11T07:05:34.839Z,27.47
2019-02-11T07:08:07.984Z,19.77
2019-02-11T07:10:39.964Z,30.83
2019-02-11T07:13:11.827Z,23.33
2019-02-11T07:15:43.712Z,22.30
2019-02-11T07:18:15.580Z,21.10
2019-02-11T07:20:47.947Z,23.80
2019-02-11T07:23:19.915Z,25.43
2019-02-11T07:25:51.827Z,22.13
2019-02-11T07:28:23.689Z,20.60
2019-02-11T07:30:55.640Z,18.70
2019-02-11T07:33:27.576Z,20.07
2019-02-11T07:35:59.414Z,24.67
2019-02-11T07:38:31.442Z,21.13
2019-02-11T07:41:05.981Z,22.53
2019-02-11T07:43:59.881Z,20.17
2019-02-11T07:47:16.639Z,20.37
2019-02-11T07:49:48.496Z,22.30
2019-02-11T07:52:26.668Z,17.40
2019-02-11T07:54:53.835Z,21.80
2019-02-11T07:57:25.664Z,22.37
2019-02-11T07:59:58.068Z,50.27
2019-02-11T08:02:29.995Z,50.37
2019-02-11T08:05:04.585Z,30.00
2019-02-11T08:07:36.424Z,20.57
2019-02-11T08:10:08.339Z,18.43
2019-02-11T08:12:40.232Z,18.93
2019-02-11T08:15:12.466Z,16.77
2019-02-11T08:17:46.920Z,17.77
2019-02-11T08:20:18.950Z,20.30
2019-02-11T08:22:50.783Z,19.13
2019-02-11T08:25:24.906Z,17.70
2019-02-11T08:27:56.737Z,13.33
2019-02-11T08:30:47.765Z,17.93
2019-02-11T08:33:19.684Z,17.17
2019-02-11T08:35:51.518Z,15.50
2019-02-11T08:38:26.438Z,20.00
2019-02-11T08:40:58.765Z,17.17
2019-02-11T08:43:30.563Z,13.53
2019-02-11T08:46:05.561Z,18.07
2019-02-11T08:48:37.730Z,17.83
2019-02-11T08:51:09.925Z,16.83
2019-02-11T08:53:41.838Z,14.97
2019-02-11T08:56:13.620Z,19.20
2019-02-11T08:58:45.576Z,16.67
2019-02-11T09:01:17.398Z,19.07
2019-02-11T09:03:49.312Z,19.70
2019-02-11T09:06:21.589Z,20.13
2019-02-11T09:08:53.533Z,16.87
2019-02-11T09:11:27.020Z,15.03
2019-02-11T09:13:59.518Z,11.37
2019-02-11T09:16:31.416Z,13.43
2019-02-11T09:19:03.638Z,16.93
2019-02-11T09:21:35.593Z,18.00
2019-02-11T09:24:07.405Z,15.43
2019-02-11T09:26:39.317Z,15.63
2019-02-11T09:29:11.190Z,13.98
2019-02-11T09:31:43.035Z,14.60
2019-02-11T09:34:14.856Z,12.75
2019-02-11T09:36:46.698Z,11.70
2019-02-11T09:39:18.629Z,12.30
2019-02-11T09:41:51.733Z,10.63
2019-02-11T09:44:29.607Z,13.58
2019-02-11T09:46:58.746Z,12.45
2019-02-11T09:49:31.015Z,13.25
2019-02-11T09:52:02.979Z,9.23
2019-02-11T09:54:34.817Z,10.88
2019-02-11T09:57:08.228Z,11.57
2019-02-11T09:59:40.060Z,11.53
2019-02-11T10:02:11.906Z,9.35
2019-02-11T10:04:43.730Z,9.08
2019-02-11T10:07:17.915Z,8.15
2019-02-11T10:09:49.765Z,11.95
2019-02-11T10:12:21.752Z,9.15
2019-02-11T10:14:53.608Z,14.18
2019-02-11T10:17:29.875Z,11.70
2019-02-11T10:20:03.056Z,10.75
2019-02-11T10:22:35.082Z,12.13
2019-02-11T10:25:09.816Z,12.55
2019-02-11T10:27:41.619Z,14.10
2019-02-11T10:30:14.864Z,14.25
2019-02-11T10:32:46.804Z,8.28
2019-02-11T10:35:18.761Z,9.35
2019-02-11T10:37:50.591Z,11.10
2019-02-11T10:40:22.558Z,9.73
2019-02-11T10:42:54.382Z,11.30
2019-02-11T10:45:26.379Z,12.60
2019-02-11T10:47:58.667Z,10.18
2019-02-11T10:50:31.139Z,7.80
2019-02-11T10:53:02.933Z,9.55
2019-02-11T10:55:34.793Z,12.82
2019-02-11T10:58:06.596Z,9.48
2019-02-11T11:00:38.818Z,14.78
2019-02-11T11:03:10.644Z,9.88
2019-02-11T11:05:43.315Z,7.22
2019-02-11T11:08:15.256Z,7.37
2019-02-11T11:10:47.145Z,9.50
2019-02-11T11:13:18.954Z,7.33
2019-02-11T11:15:50.767Z,13.48
2019-02-11T11:18:23.309Z,13.72
2019-02-11T11:20:55.101Z,10.90
2019-02-11T11:23:28.135Z,9.15
2019-02-11T11:26:00.031Z,10.18
2019-02-11T11:28:32.213Z,9.73
2019-02-11T11:31:04.395Z,5.50
2019-02-11T11:33:36.536Z,7.30
2019-02-11T11:36:09.167Z,9.88
2019-02-11T11:38:43.781Z,9.25
2019-02-11T11:41:15.645Z,10.13
2019-02-11T11:43:47.444Z,7.33
2019-02-11T11:46:19.281Z,10.05
2019-02-11T11:48:51.160Z,7.33
2019-02-11T11:51:23.356Z,8.15
2019-02-11T11:53:55.325Z,7.90
2019-02-11T11:56:27.147Z,7.62
2019-02-11T11:58:59.809Z,9.00
2019-02-11T12:01:31.666Z,8.88
2019-02-11T12:04:06.358Z,10.23
2019-02-11T12:06:37.578Z,8.03
2019-02-11T12:09:09.630Z,10.08
2019-02-11T12:11:43.376Z,7.20
2019-02-11T12:14:15.986Z,9.03
2019-02-11T12:16:56.790Z,9.10
2019-02-11T12:19:21.323Z,12.40
2019-02-11T12:21:53.443Z,8.75
2019-02-11T12:24:25.342Z,8.93
2019-02-11T12:26:57.910Z,12.23
2019-02-11T12:29:29.737Z,9.23
2019-02-11T12:32:03.675Z,11.57
2019-02-11T12:34:36.050Z,8.85
2019-02-11T12:37:09.503Z,9.60
2019-02-11T12:39:41.521Z,8.10
2019-02-11T12:42:13.941Z,9.35
2019-02-11T12:44:45.978Z,7.33
2019-02-11T12:47:17.794Z,7.70
2019-02-11T12:49:49.580Z,8.85
2019-02-11T12:52:21.613Z,10.95
2019-02-11T12:54:53.430Z,6.78
2019-02-11T12:57:25.907Z,7.70
2019-02-11T12:59:57.739Z,7.62
2019-02-11T13:02:29.580Z,8.55
2019-02-11T13:05:01.522Z,9.03
2019-02-11T13:07:33.355Z,9.60
2019-02-11T13:10:07.502Z,5.50
2019-02-11T13:12:39.608Z,5.95
2019-02-11T13:15:11.795Z,7.97
2019-02-11T13:17:43.882Z,12.68
2019-02-11T13:20:15.742Z,8.85
2019-02-11T13:22:47.976Z,10.70
2019-02-11T13:25:19.861Z,10.38
2019-02-11T13:27:51.679Z,11.65
2019-02-11T13:30:28.735Z,11.28
2019-02-11T13:33:00.627Z,15.48
2019-02-11T13:35:34.317Z,10.80
2019-02-11T13:38:06.106Z,15.90
2019-02-11T13:40:37.946Z,16.23
2019-02-11T13:43:09.986Z,14.23
2019-02-11T13:45:41.809Z,9.98
2019-02-11T13:48:14.779Z,9.23
2019-02-11T13:50:46.769Z,7.33
2019-02-11T13:53:18.889Z,9.95
2019-02-11T13:55:51.541Z,11.03
2019-02-11T13:58:23.395Z,9.90
2019-02-11T14:00:56.163Z,9.85
2019-02-11T14:03:28.261Z,11.28
2019-02-11T14:06:00.180Z,10.32
2019-02-11T14:08:32.361Z,9.18
2019-02-11T14:11:04.552Z,7.95
2019-02-11T14:13:36.399Z,10.35
2019-02-11T14:16:08.329Z,10.68
2019-02-11T14:18:40.179Z,10.32
2019-02-11T14:21:11.964Z,8.68
2019-02-11T14:23:43.809Z,11.25
2019-02-11T14:26:15.894Z,8.63
2019-02-11T14:28:49.573Z,9.88
2019-02-11T14:31:22.047Z,16.27
2019-02-11T14:33:54.685Z,12.13
2019-02-11T14:36:26.724Z,9.75
2019-02-11T14:38:58.678Z,8.78
2019-02-11T14:41:31.394Z,11.18
2019-02-11T14:44:03.281Z,9.05
2019-02-11T14:46:35.455Z,9.70
2019-02-11T14:49:08.828Z,9.48
2019-02-11T14:51:40.783Z,10.10
2019-02-11T14:54:14.167Z,8.70
2019-02-11T14:56:47.978Z,8.55
2019-02-11T14:59:19.800Z,10.05
2019-02-11T15:01:51.644Z,11.73
2019-02-11T15:04:23.507Z,10.30
2019-02-11T15:06:55.291Z,12.05
2019-02-11T15:09:30.308Z,11.63
2019-02-11T15:12:04.947Z,12.53
2019-02-11T15:14:36.785Z,12.60
2019-02-11T15:17:08.749Z,7.17
2019-02-11T15:19:41.238Z,12.98
2019-02-11T15:22:13.150Z,25.02
2019-02-11T15:24:45.000Z,9.88
2019-02-11T15:27:17.486Z,10.40
2019-02-11T15:29:49.504Z,11.28
2019-02-11T15:32:21.509Z,8.93
2019-02-11T15:34:54.030Z,10.38
2019-02-11T15:37:25.944Z,11.63
2019-02-11T15:39:57.765Z,11.88
2019-02-11T15:42:29.573Z,13.45
2019-02-11T15:45:01.472Z,12.20
2019-02-11T15:47:36.153Z,8.08
2019-02-11T15:50:09.680Z,11.50
2019-02-11T15:52:41.766Z,10.90
2019-02-11T15:55:16.758Z,11.78
2019-02-11T15:57:51.531Z,9.28
2019-02-11T16:00:23.805Z,13.22
2019-02-11T16:02:55.658Z,12.40
2019-02-11T16:05:27.515Z,18.45
2019-02-11T16:08:00.857Z,13.22
2019-02-11T16:10:32.930Z,8.35
2019-02-11T16:13:04.743Z,10.35
2019-02-11T16:15:37.266Z,11.40
2019-02-11T16:18:09.237Z,9.63
2019-02-11T16:20:41.034Z,9.23
2019-02-11T16:23:12.852Z,13.60
2019-02-11T16:25:44.637Z,12.68
2019-02-11T16:28:17.162Z,7.37
2019-02-11T16:30:49.129Z,9.80
2019-02-11T16:33:20.948Z,13.08
2019-02-11T16:35:53.220Z,10.28
2019-02-11T16:38:26.356Z,10.55
2019-02-11T16:40:58.243Z,9.18
2019-02-11T16:43:30.063Z,10.82
2019-02-11T16:46:01.968Z,11.70
2019-02-11T16:48:34.264Z,7.53
2019-02-11T16:51:06.053Z,16.25
2019-02-11T16:53:39.610Z,10.63
2019-02-11T16:56:11.464Z,13.83
2019-02-11T16:58:43.419Z,12.55
2019-02-11T17:01:15.292Z,11.60
2019-02-11T17:03:47.166Z,24.80
2019-02-11T17:06:19.034Z,17.32
2019-02-11T17:08:51.139Z,11.43
2019-02-11T17:11:23.399Z,9.98
2019-02-11T17:13:55.229Z,14.78
2019-02-11T17:16:29.733Z,27.48
2019-02-11T17:19:09.187Z,15.13
2019-02-11T17:21:37.500Z,17.32
2019-02-11T17:24:09.343Z,137.10
2019-02-11T17:26:41.548Z,90.05
2019-02-11T17:29:13.349Z,98.30
2019-02-11T17:31:45.209Z,120.20
2019-02-11T17:34:17.016Z,90.12
2019-02-11T17:36:49.947Z,131.95
2019-02-11T17:39:21.779Z,172.05
2019-02-11T17:41:53.629Z,63.08
2019-02-11T17:44:25.897Z,43.85
2019-02-11T17:46:57.804Z,33.33
2019-02-11T17:49:29.609Z,43.28
2019-02-11T17:52:03.772Z,37.88
2019-02-11T17:54:36.262Z,24.85
2019-02-11T17:57:09.158Z,31.95
2019-02-11T17:59:41.770Z,36.77
2019-02-11T18:02:15.432Z,81.57
2019-02-11T18:04:52.592Z,53.28
2019-02-11T18:07:26.989Z,34.18
2019-02-11T18:10:00.266Z,47.65
2019-02-11T18:12:34.407Z,36.60
2019-02-11T18:15:12.106Z,28.00
2019-02-11T18:17:45.742Z,24.10
2019-02-11T18:20:19.248Z,25.65
2019-02-11T18:22:51.243Z,26.37
2019-02-11T18:25:23.885Z,28.85
2019-02-11T18:27:55.895Z,31.02
2019-02-11T18:30:27.784Z,39.95
2019-02-11T18:32:59.660Z,38.53
2019-02-11T18:35:31.455Z,39.53
2019-02-11T18:38:03.573Z,34.63
2019-02-11T18:40:35.781Z,37.10
2019-02-11T18:43:07.753Z,37.28
2019-02-11T18:45:40.001Z,40.55
2019-02-11T18:48:14.151Z,49.83
2019-02-11T18:50:47.901Z,45.80
2019-02-11T18:53:23.957Z,48.10
2019-02-11T18:55:55.819Z,48.10
2019-02-11T18:58:28.038Z,44.35
2019-02-11T19:01:00.313Z,50.03
2019-02-11T19:03:32.114Z,46.60
2019-02-11T19:06:05.078Z,78.12
2019-02-11T19:08:39.361Z,76.37
2019-02-11T19:11:11.203Z,71.05
2019-02-11T19:13:43.088Z,60.67
2019-02-11T19:16:14.950Z,54.15
2019-02-11T19:18:46.775Z,50.73
2019-02-11T19:21:19.714Z,56.65
2019-02-11T19:23:51.629Z,67.90
2019-02-11T19:26:23.507Z,65.42
2019-02-11T19:28:55.365Z,60.90
2019-02-11T19:31:27.679Z,59.53
2019-02-11T19:34:00.150Z,64.42
2019-02-11T19:36:34.663Z,59.38
2019-02-11T19:39:06.958Z,53.08
2019-02-11T19:41:38.859Z,52.00
2019-02-11T19:44:10.745Z,60.35
2019-02-11T19:46:42.772Z,56.65
2019-02-11T19:49:14.729Z,68.30
2019-02-11T19:51:46.600Z,64.90
2019-02-11T19:54:18.488Z,70.45
2019-02-11T19:56:50.759Z,66.40
2019-02-11T19:59:22.704Z,71.72
2019-02-11T20:01:54.567Z,82.53
2019-02-11T20:04:26.449Z,85.30
2019-02-11T20:06:58.722Z,98.33
2019-02-11T20:09:32.893Z,533.80
2019-02-11T20:12:04.145Z,463.60
2019-02-11T20:14:35.987Z,111.08
2019-02-11T20:17:07.766Z,197.47
2019-02-11T20:19:39.971Z,462.12
2019-02-11T20:22:11.773Z,191.88
2019-02-11T20:24:43.734Z,238.15
2019-02-11T20:27:15.553Z,96.75
2019-02-11T20:29:48.484Z,87.33
2019-02-11T20:32:20.903Z,121.20
2019-02-11T20:34:52.842Z,104.25
2019-02-11T20:37:24.626Z,89.22
2019-02-11T20:40:03.193Z,95.85
2019-02-11T20:42:30.916Z,109.40
2019-02-11T20:45:02.782Z,123.65
2019-02-11T20:47:35.726Z,95.55
2019-02-11T20:50:09.788Z,87.10
2019-02-11T20:52:42.509Z,77.85
2019-02-11T20:55:14.479Z,89.20
2019-02-11T20:57:47.517Z,92.55
2019-02-11T21:00:20.966Z,98.42
2019-02-11T21:02:56.461Z,94.22
2019-02-11T21:05:28.724Z,97.12
2019-02-11T21:08:00.739Z,99.72
2019-02-11T21:10:34.767Z,86.33
2019-02-11T21:13:06.678Z,88.35
2019-02-11T21:15:38.585Z,86.17
2019-02-11T21:18:10.804Z,85.22
2019-02-11T21:20:43.585Z,79.95
2019-02-11T21:23:15.487Z,80.85
2019-02-11T21:25:47.762Z,83.55
2019-02-11T21:28:19.981Z,79.32
2019-02-11T21:30:51.830Z,81.53
2019-02-11T21:33:23.779Z,92.97
2019-02-11T21:35:55.743Z,89.92
2019-02-11T21:38:27.579Z,98.42
2019-02-11T21:40:59.473Z,109.70
2019-02-11T21:43:31.364Z,123.22
2019-02-11T21:46:05.705Z,165.97
2019-02-11T21:48:37.584Z,121.72
2019-02-11T21:51:09.583Z,117.67
2019-02-11T21:53:41.435Z,109.75
2019-02-11T21:56:13.295Z,113.75
2019-02-11T21:58:45.300Z,111.22
2019-02-11T22:01:17.543Z,99.47
2019-02-11T22:03:49.399Z,97.08
2019-02-11T22:06:21.991Z,73.40
2019-02-11T22:08:53.921Z,78.00
2019-02-11T22:11:26.732Z,78.50
2019-02-11T22:13:58.946Z,76.60
2019-02-11T22:16:30.845Z,82.97
2019-02-11T22:19:02.718Z,86.05
2019-02-11T22:21:34.921Z,78.45
2019-02-11T22:24:06.694Z,73.40
2019-02-11T22:26:40.036Z,65.75
2019-02-11T22:29:11.840Z,65.67
2019-02-11T22:31:43.715Z,74.65
2019-02-11T22:34:15.507Z,64.45
2019-02-11T22:36:47.689Z,72.87
2019-02-11T22:39:19.581Z,71.10
2019-02-11T22:41:51.469Z,74.20
2019-02-11T22:44:23.447Z,72.73
2019-02-11T22:46:55.733Z,84.75
2019-02-11T22:49:27.581Z,87.00
2019-02-11T22:51:59.395Z,82.70
2019-02-11T22:54:31.657Z,79.07
2019-02-11T22:57:03.464Z,82.03
2019-02-11T22:59:35.431Z,81.17
2019-02-11T23:02:07.636Z,74.17
2019-02-11T23:04:39.482Z,85.07
2019-02-11T23:07:11.322Z,77.92
2019-02-11T23:09:44.109Z,78.97
2019-02-11T23:12:17.803Z,89.10
2019-02-11T23:14:49.621Z,90.17
2019-02-11T23:17:21.457Z,80.03
2019-02-11T23:19:53.299Z,78.80
2019-02-11T23:22:25.134Z,76.72
2019-02-11T23:24:56.907Z,85.65
2019-02-11T23:27:29.192Z,78.23
2019-02-11T23:30:02.002Z,78.05
2019-02-11T23:32:36.325Z,72.10
2019-02-11T23:35:08.412Z,103.20
2019-02-11T23:37:40.309Z,69.57
2019-02-11T23:40:13.809Z,62.15
2019-02-11T23:42:46.231Z,76.47
2019-02-11T23:45:18.618Z,80.87
2019-02-11T23:47:50.448Z,71.07
2019-02-11T23:50:22.227Z,80.25
2019-02-11T23:52:54.136Z,63.40
2019-02-11T23:55:25.991Z,73.13
2019-02-11T23:57:57.796Z,68.20
